Time;durP1;ratioP1;P1;durP2;ratioP2;P2;SDS_P1;SDS_P2;PMS_P1;PMS_P2;Temp;Humidity;BMP_temperature;BMP_pressure;BME280_temperature;BME280_humidity;BME280_pressure;Samples;Min_cycle;Max_cycle;Signal;HPM_P1;HPM_P2
2022/04/16 00:02:22;;;;;;;;;;;6.90;99.90;;;;;;5050695;28;19935;-74
2022/04/16 00:04:49;;;;;;;;;;;6.90;99.90;;;;;;5063373;28;19924;-74
2022/04/16 00:07:16;;;;;;;;;;;6.90;99.90;;;;;;5065527;28;20228;-74
2022/04/16 00:09:43;;;;;;;;;;;6.90;99.90;;;;;;5071163;28;20391;-75
2022/04/16 00:12:09;;;;;;;;;;;6.90;99.90;;;;;;5070502;28;20223;-74
2022/04/16 00:14:38;;;;;;;;;;;6.90;99.90;;;;;;5070713;28;19932;-74
2022/04/16 00:17:05;;;;;;;;;;;6.90;99.90;;;;;;5063564;28;19932;-74
2022/04/16 00:19:32;;;;;;;;;;;6.90;99.90;;;;;;5070344;28;19924;-74
2022/04/16 00:22:00;;;;;;;;;;;6.90;99.90;;;;;;5070864;28;19970;-74
2022/04/16 00:24:29;;;;;;;;;;;6.90;99.90;;;;;;5062866;28;19939;-74
2022/04/16 00:26:56;;;;;;;;;;;6.90;99.90;;;;;;5060099;28;19928;-74
2022/04/16 00:29:23;;;;;;;;;;;6.90;99.90;;;;;;5049972;28;19936;-74
2022/04/16 00:31:50;;;;;;;;;;;6.80;99.90;;;;;;5050732;28;19925;-74
2022/04/16 00:34:19;;;;;;;;;;;6.90;99.90;;;;;;5054632;28;19925;-74
2022/04/16 00:36:47;;;;;;;;;;;6.90;99.90;;;;;;5070612;28;20310;-74
2022/04/16 00:39:13;;;;;;;;;;;6.90;99.90;;;;;;5070308;28;19932;-74
2022/04/16 00:41:40;;;;;;;;;;;7.10;99.90;;;;;;5068247;28;19928;-74
2022/04/16 00:44:07;;;;;;;;;;;7.10;99.90;;;;;;5068931;28;20410;-74
2022/04/16 00:46:36;;;;;;;;;;;7.30;99.90;;;;;;5049457;28;19935;-75
2022/04/16 00:49:03;;;;;;;;;;;7.40;99.90;;;;;;5050820;28;20364;-74
2022/04/16 00:51:30;;;;;;;;;;;7.50;99.90;;;;;;5050604;28;19929;-74
2022/04/16 00:53:57;;;;;;;;;;;7.70;99.90;;;;;;5051914;28;19951;-75
2022/04/16 00:56:24;;;;;;;;;;;7.70;99.90;;;;;;5063639;28;20015;-74
2022/04/16 00:58:50;;;;;;;;;;;7.60;99.90;;;;;;5069948;28;19924;-74
2022/04/16 01:01:17;;;;;;;;;;;7.60;99.90;;;;;;5086972;28;19970;-74
2022/04/16 01:03:45;;;;;;;;;;;7.60;99.90;;;;;;5089359;28;19932;-73
2022/04/16 01:06:14;;;;;;;;;;;7.60;99.90;;;;;;5073425;28;19924;-74
2022/04/16 01:08:44;;;;;;;;;;;7.70;99.90;;;;;;5067180;28;19935;-74
2022/04/16 01:11:17;;;;;;;;;;;7.70;99.90;;;;;;5054044;28;19924;-74
2022/04/16 01:13:48;;;;;;;;;;;7.70;99.90;;;;;;5050238;28;20306;-74
2022/04/16 01:16:15;;;;;;;;;;;7.70;99.90;;;;;;5066637;28;20463;-74
2022/04/16 01:18:46;;;;;;;;;;;7.80;99.90;;;;;;5068319;28;19924;-72
2022/04/16 01:21:15;;;;;;;;;;;7.80;99.90;;;;;;5068715;28;19933;-73
2022/04/16 01:23:42;;;;;;;;;;;7.70;99.90;;;;;;5067269;28;19928;-73
2022/04/16 01:26:09;;;;;;;;;;;7.70;99.90;;;;;;5061917;28;19924;-72
2022/04/16 01:28:35;;;;;;;;;;;7.60;99.90;;;;;;5069167;28;19928;-73
2022/04/16 01:31:02;;;;;;;;;;;7.60;99.90;;;;;;5066857;28;20110;-73
2022/04/16 01:33:30;;;;;;;;;;;7.60;99.90;;;;;;5067862;28;19938;-73
2022/04/16 01:35:56;;;;;;;;;;;7.50;99.90;;;;;;5068340;28;19925;-73
2022/04/16 01:38:25;;;;;;;;;;;7.40;99.90;;;;;;5069386;28;19938;-73
2022/04/16 01:40:55;;;;;;;;;;;7.30;99.90;;;;;;5067963;28;19930;-73
2022/04/16 01:43:22;;;;;;;;;;;7.20;99.90;;;;;;5069180;28;20347;-73
2022/04/16 01:45:58;;;;;;;;;;;7.10;99.90;;;;;;5069307;28;19924;-72
2022/04/16 01:48:27;;;;;;;;;;;7.00;99.90;;;;;;5069055;28;19932;-73
2022/04/16 01:50:54;;;;;;;;;;;7.00;99.90;;;;;;5066944;28;19960;-73
2022/04/16 01:53:21;;;;;;;;;;;7.00;99.90;;;;;;5067324;28;19924;-73
2022/04/16 01:55:50;;;;;;;;;;;6.90;99.90;;;;;;5069302;28;19925;-73
2022/04/16 01:58:17;;;;;;;;;;;6.90;99.90;;;;;;5063544;28;19924;-73
2022/04/16 02:00:43;;;;;;;;;;;6.90;99.90;;;;;;5049263;28;20335;-73
2022/04/16 02:03:14;;;;;;;;;;;6.90;99.90;;;;;;5050813;28;19979;-73
2022/04/16 02:05:41;;;;;;;;;;;6.90;99.90;;;;;;5067174;28;19924;-73
2022/04/16 02:08:10;;;;;;;;;;;6.90;99.90;;;;;;5068293;28;19932;-73
2022/04/16 02:10:37;;;;;;;;;;;6.90;99.90;;;;;;5101169;28;19925;-73
2022/04/16 02:13:08;;;;;;;;;;;6.90;99.90;;;;;;5069109;28;19924;-73
2022/04/16 02:15:35;;;;;;;;;;;6.90;99.90;;;;;;5066677;28;20398;-74
2022/04/16 02:18:01;;;;;;;;;;;6.90;99.90;;;;;;5067742;28;19931;-73
2022/04/16 02:20:28;;;;;;;;;;;6.90;99.90;;;;;;5054811;28;19931;-73
2022/04/16 02:22:55;;;;;;;;;;;6.80;99.90;;;;;;5066665;28;19985;-73
2022/04/16 02:25:24;;;;;;;;;;;6.80;99.90;;;;;;5066144;28;19946;-73
2022/04/16 02:27:51;;;;;;;;;;;6.70;99.90;;;;;;5068343;28;20026;-73
2022/04/16 02:30:18;;;;;;;;;;;6.70;99.90;;;;;;5065968;28;20469;-73
2022/04/16 02:32:45;;;;;;;;;;;6.60;99.90;;;;;;5066009;28;19947;-73
2022/04/16 02:35:16;;;;;;;;;;;6.60;99.90;;;;;;5053827;28;19957;-73
2022/04/16 02:37:46;;;;;;;;;;;6.50;99.90;;;;;;5063420;28;19925;-73
2022/04/16 02:40:15;;;;;;;;;;;6.50;99.90;;;;;;5062398;28;19924;-73
2022/04/16 02:42:44;;;;;;;;;;;6.40;99.90;;;;;;5068782;28;19930;-73
2022/04/16 02:47:58;;;;;;;;;;;6.40;99.90;;;;;;5068873;28;19939;-73
2022/04/16 02:50:25;;;;;;;;;;;6.40;99.90;;;;;;5068247;28;19935;-73
2022/04/16 02:52:53;;;;;;;;;;;6.50;99.90;;;;;;5069192;28;19928;-73
2022/04/16 02:55:23;;;;;;;;;;;6.70;99.90;;;;;;5067399;28;19924;-73
2022/04/16 02:57:49;;;;;;;;;;;6.70;99.90;;;;;;5066126;28;20011;-73
2022/04/16 03:00:17;;;;;;;;;;;6.80;99.90;;;;;;5053946;28;19931;-73
2022/04/16 03:02:43;;;;;;;;;;;6.80;99.90;;;;;;5048473;28;19939;-73
2022/04/16 03:05:11;;;;;;;;;;;6.90;99.90;;;;;;5061887;28;19925;-74
2022/04/16 03:07:38;;;;;;;;;;;6.90;99.90;;;;;;5068396;28;19924;-73
2022/04/16 03:10:05;;;;;;;;;;;7.00;99.90;;;;;;5069339;28;19925;-74
2022/04/16 03:12:44;;;;;;;;;;;7.10;99.90;;;;;;5072429;28;19924;-73
2022/04/16 03:17:59;;;;;;;;;;;7.30;99.90;;;;;;5071272;28;19924;-74
2022/04/16 03:20:27;;;;;;;;;;;7.50;99.90;;;;;;5071626;28;19931;-74
2022/04/16 03:22:57;;;;;;;;;;;7.50;99.90;;;;;;5060362;28;20371;-74
2022/04/16 03:25:30;;;;;;;;;;;7.60;99.90;;;;;;5064969;28;19932;-74
2022/04/16 03:27:57;;;;;;;;;;;7.70;99.90;;;;;;5068985;28;20011;-74
2022/04/16 03:30:24;;;;;;;;;;;7.80;99.90;;;;;;5068975;28;19924;-74
2022/04/16 03:32:51;;;;;;;;;;;7.80;99.90;;;;;;5071864;28;19924;-74
2022/04/16 03:35:19;;;;;;;;;;;7.80;99.90;;;;;;5070496;28;20039;-74
2022/04/16 03:37:46;;;;;;;;;;;7.90;99.90;;;;;;5069877;28;19924;-74
2022/04/16 03:40:13;;;;;;;;;;;7.90;99.90;;;;;;5071777;28;20083;-74
2022/04/16 03:42:50;;;;;;;;;;;8.00;99.90;;;;;;5070331;28;19931;-74
2022/04/16 03:45:25;;;;;;;;;;;8.10;99.90;;;;;;5062645;28;20210;-74
2022/04/16 03:47:53;;;;;;;;;;;8.10;99.90;;;;;;5069554;28;19931;-74
2022/04/16 03:50:20;;;;;;;;;;;8.00;99.90;;;;;;5062621;28;19924;-74
2022/04/16 03:52:47;;;;;;;;;;;8.00;99.90;;;;;;5104117;28;19924;-74
2022/04/16 04:01:00;;;;;;;;;;;8.20;99.90;;;;;;5058846;28;20398;-74
2022/04/16 04:03:26;;;;;;;;;;;8.20;99.90;;;;;;5053868;28;20262;-74
2022/04/16 04:05:54;;;;;;;;;;;8.30;99.90;;;;;;5069553;28;19931;-74
2022/04/16 04:08:22;;;;;;;;;;;8.30;99.90;;;;;;5068787;28;20318;-74
2022/04/16 04:10:48;;;;;;;;;;;8.30;99.90;;;;;;5071189;28;19978;-74
2022/04/16 04:13:17;;;;;;;;;;;8.30;99.90;;;;;;5071016;28;19924;-74
2022/04/16 04:15:46;;;;;;;;;;;8.40;99.90;;;;;;5070488;28;19928;-74
2022/04/16 04:18:13;;;;;;;;;;;8.40;99.90;;;;;;5071243;28;19939;-74
2022/04/16 04:20:40;;;;;;;;;;;8.40;99.90;;;;;;5071157;28;19924;-74
2022/04/16 04:23:07;;;;;;;;;;;8.40;99.90;;;;;;5069390;28;19924;-74
2022/04/16 04:25:33;;;;;;;;;;;8.50;99.90;;;;;;5067854;28;19932;-74
2022/04/16 04:28:00;;;;;;;;;;;8.50;99.90;;;;;;5070535;28;19931;-74
2022/04/16 04:30:27;;;;;;;;;;;8.50;99.90;;;;;;5069321;28;20019;-74
2022/04/16 04:32:56;;;;;;;;;;;8.60;99.90;;;;;;5063140;28;20259;-74
2022/04/16 04:35:24;;;;;;;;;;;8.60;99.90;;;;;;5069348;28;19932;-74
2022/04/16 04:37:51;;;;;;;;;;;8.70;99.90;;;;;;5066561;28;20425;-75
2022/04/16 04:40:17;;;;;;;;;;;8.60;99.90;;;;;;5070063;28;19924;-74
2022/04/16 04:42:46;;;;;;;;;;;8.70;99.90;;;;;;5066997;28;19928;-74
2022/04/16 04:45:14;;;;;;;;;;;8.70;99.90;;;;;;5050395;28;19928;-74
2022/04/16 04:47:41;;;;;;;;;;;8.70;99.90;;;;;;5050329;28;19925;-74
2022/04/16 04:50:08;;;;;;;;;;;8.70;99.90;;;;;;5067215;28;19931;-74
2022/04/16 04:52:36;;;;;;;;;;;8.70;99.90;;;;;;5068454;28;20020;-74
2022/04/16 04:55:05;;;;;;;;;;;8.80;99.90;;;;;;5070652;28;20007;-76
2022/04/16 04:57:32;;;;;;;;;;;8.80;99.90;;;;;;5068631;28;19925;-76
2022/04/16 04:59:59;;;;;;;;;;;8.80;99.90;;;;;;5067191;28;20413;-76
2022/04/16 05:02:25;;;;;;;;;;;8.80;99.90;;;;;;5065250;28;19937;-76
2022/04/16 05:04:52;;;;;;;;;;;8.90;99.90;;;;;;5067128;28;19924;-76
2022/04/16 05:07:19;;;;;;;;;;;8.90;99.90;;;;;;5069580;28;20405;-76
2022/04/16 05:09:45;;;;;;;;;;;9.00;99.90;;;;;;5064948;28;19935;-76
2022/04/16 05:12:12;;;;;;;;;;;9.00;99.90;;;;;;5081890;28;19924;-76
2022/04/16 05:14:39;;;;;;;;;;;9.10;99.90;;;;;;5067827;28;19931;-76
2022/04/16 05:17:05;;;;;;;;;;;9.10;99.90;;;;;;5066492;28;19935;-76
2022/04/16 05:19:42;;;;;;;;;;;9.20;99.90;;;;;;5067392;28;20305;-76
2022/04/16 05:22:08;;;;;;;;;;;9.30;99.90;;;;;;5049363;28;20030;-76
2022/04/16 05:24:35;;;;;;;;;;;9.30;99.90;;;;;;5062121;28;19924;-76
2022/04/16 05:27:01;;;;;;;;;;;9.40;99.90;;;;;;5069236;28;20348;-76
2022/04/16 05:29:48;;;;;;;;;;;9.40;99.90;;;;;;5063662;28;19931;-76
2022/04/16 05:32:19;;;;;;;;;;;9.40;99.90;;;;;;5064211;28;19931;-76
2022/04/16 05:34:45;;;;;;;;;;;9.50;99.90;;;;;;5058980;28;19924;-76
2022/04/16 05:37:12;;;;;;;;;;;9.50;99.90;;;;;;5065826;28;20363;-76
2022/04/16 05:39:39;;;;;;;;;;;9.60;99.90;;;;;;5065865;28;19925;-76
2022/04/16 05:42:06;;;;;;;;;;;9.60;99.90;;;;;;5065038;28;19924;-76
2022/04/16 05:44:33;;;;;;;;;;;9.60;99.90;;;;;;5063269;28;19932;-76
2022/04/16 05:47:00;;;;;;;;;;;9.60;99.90;;;;;;5067084;28;19925;-76
2022/04/16 05:49:27;;;;;;;;;;;9.70;99.90;;;;;;5064594;28;19925;-76
2022/04/16 05:51:58;;;;;;;;;;;9.70;99.90;;;;;;5063223;28;20346;-76
2022/04/16 05:54:25;;;;;;;;;;;9.80;99.90;;;;;;5064856;28;19936;-76
2022/04/16 05:56:51;;;;;;;;;;;9.80;99.90;;;;;;5090213;28;20213;-76
2022/04/16 05:59:18;;;;;;;;;;;9.90;99.90;;;;;;5059081;28;19924;-76
2022/04/16 06:01:46;;;;;;;;;;;9.90;99.90;;;;;;5063669;28;19925;-76
2022/04/16 06:04:12;;;;;;;;;;;10.00;99.90;;;;;;5074428;28;20389;-76
2022/04/16 06:06:42;;;;;;;;;;;10.10;99.90;;;;;;5061282;28;19935;-76
2022/04/16 06:09:08;;;;;;;;;;;10.10;99.90;;;;;;5063774;28;19925;-76
2022/04/16 06:11:36;;;;;;;;;;;10.20;99.90;;;;;;5063933;28;19929;-76
2022/04/16 06:14:03;;;;;;;;;;;10.30;99.90;;;;;;5065908;28;19925;-76
2022/04/16 06:16:30;;;;;;;;;;;10.30;99.90;;;;;;5066191;28;19924;-76
2022/04/16 06:18:56;;;;;;;;;;;10.40;99.90;;;;;;5063668;28;19971;-76
2022/04/16 06:21:23;;;;;;;;;;;10.40;99.90;;;;;;5062294;28;19924;-76
2022/04/16 06:23:51;;;;;;;;;;;10.40;99.90;;;;;;5056218;28;19928;-76
2022/04/16 06:26:18;;;;;;;;;;;10.30;99.90;;;;;;5057596;28;19925;-75
2022/04/16 06:28:47;;;;;;;;;;;10.30;99.90;;;;;;5060863;28;19939;-75
2022/04/16 06:31:14;;;;;;;;;;;10.30;99.90;;;;;;5064962;28;19932;-75
2022/04/16 06:33:45;;;;;;;;;;;10.20;99.90;;;;;;5096480;28;19925;-75
2022/04/16 06:36:11;;;;;;;;;;;10.30;99.90;;;;;;5053676;28;19985;-75
2022/04/16 06:38:38;;;;;;;;;;;10.40;99.90;;;;;;5063436;28;19924;-75
2022/04/16 06:41:08;;;;;;;;;;;10.40;99.90;;;;;;5060026;28;19928;-75
2022/04/16 06:43:34;;;;;;;;;;;10.50;99.90;;;;;;5063691;28;20403;-75
2022/04/16 06:46:02;;;;;;;;;;;10.60;99.90;;;;;;5069501;28;19932;-75
2022/04/16 06:48:29;;;;;;;;;;;10.60;99.90;;;;;;5070054;28;19982;-75
2022/04/16 06:50:56;;;;;;;;;;;10.50;99.90;;;;;;5067965;28;19925;-75
2022/04/16 06:53:25;;;;;;;;;;;10.60;99.90;;;;;;5071570;28;19951;-75
2022/04/16 06:55:51;;;;;;;;;;;10.80;99.90;;;;;;5067010;28;19925;-76
2022/04/16 06:58:18;;;;;;;;;;;11.00;99.90;;;;;;5067446;28;19932;-75
2022/04/16 07:00:45;;;;;;;;;;;11.00;99.90;;;;;;5067488;28;19934;-75
2022/04/16 07:03:11;;;;;;;;;;;11.00;99.90;;;;;;5066503;28;19978;-75
2022/04/16 07:05:38;;;;;;;;;;;11.10;99.90;;;;;;5064765;28;19924;-75
2022/04/16 07:08:05;;;;;;;;;;;11.40;99.90;;;;;;5064300;28;19932;-75
2022/04/16 07:10:32;;;;;;;;;;;11.50;99.90;;;;;;5067284;28;19955;-75
2022/04/16 07:12:58;;;;;;;;;;;11.80;99.90;;;;;;5069402;28;19933;-74
2022/04/16 07:15:28;;;;;;;;;;;11.90;99.90;;;;;;5068484;28;19948;-75
2022/04/16 07:17:57;;;;;;;;;;;11.70;99.90;;;;;;5065675;28;19932;-75
2022/04/16 07:20:24;;;;;;;;;;;11.70;99.90;;;;;;5063699;28;19931;-75
2022/04/16 07:22:50;;;;;;;;;;;11.80;99.90;;;;;;5067956;28;20295;-75
2022/04/16 07:25:17;;;;;;;;;;;11.90;99.90;;;;;;5065992;28;20306;-75
2022/04/16 07:27:44;;;;;;;;;;;12.10;99.90;;;;;;5061590;28;19931;-76
2022/04/16 07:30:10;;;;;;;;;;;12.30;99.90;;;;;;5063083;28;22033;-76
2022/04/16 07:32:38;;;;;;;;;;;12.90;99.90;;;;;;5069299;28;19931;-76
2022/04/16 07:35:08;;;;;;;;;;;13.70;99.90;;;;;;5068280;28;19928;-76
2022/04/16 07:37:35;;;;;;;;;;;14.10;99.90;;;;;;5064095;28;19928;-75
2022/04/16 07:40:02;;;;;;;;;;;14.80;99.90;;;;;;5063350;28;20023;-75
2022/04/16 07:42:30;;;;;;;;;;;14.60;99.90;;;;;;5066971;28;20022;-76
2022/04/16 07:44:56;;;;;;;;;;;14.20;99.90;;;;;;5066700;28;20120;-76
2022/04/16 07:47:23;;;;;;;;;;;14.20;99.90;;;;;;5062946;28;19932;-76
2022/04/16 07:49:50;;;;;;;;;;;14.10;99.90;;;;;;5068783;28;19924;-78
2022/04/16 07:52:17;;;;;;;;;;;14.10;99.90;;;;;;5065043;28;19924;-76
2022/04/16 07:54:43;;;;;;;;;;;13.70;99.90;;;;;;5065914;28;19929;-75
2022/04/16 07:57:13;;;;;;;;;;;13.60;99.90;;;;;;5062523;28;19925;-76
2022/04/16 07:59:40;;;;;;;;;;;13.70;99.90;;;;;;5060193;28;19928;-75
2022/04/16 08:02:06;;;;;;;;;;;14.30;99.90;;;;;;5065368;28;19931;-75
2022/04/16 08:04:33;;;;;;;;;;;14.20;99.90;;;;;;5066708;28;19924;-75
2022/04/16 08:07:00;;;;;;;;;;;14.30;99.90;;;;;;5061995;28;20387;-75
2022/04/16 08:09:26;;;;;;;;;;;14.30;99.90;;;;;;5067828;28;19932;-75
2022/04/16 08:11:53;;;;;;;;;;;13.80;99.90;;;;;;5064961;28;19925;-75
2022/04/16 08:14:20;;;;;;;;;;;13.60;99.90;;;;;;5067224;28;19929;-75
2022/04/16 08:16:47;;;;;;;;;;;13.50;99.90;;;;;;5066260;28;19928;-76
2022/04/16 08:19:14;;;;;;;;;;;14.00;99.90;;;;;;5060797;28;20410;-76
2022/04/16 08:21:42;;;;;;;;;;;14.60;99.90;;;;;;5067226;28;20374;-75
2022/04/16 08:24:28;;;;;;;;;;;15.00;99.90;;;;;;5070975;28;20726;-74
2022/04/16 08:26:54;;;;;;;;;;;14.80;99.90;;;;;;5068045;28;19975;-74
2022/04/16 08:29:22;;;;;;;;;;;14.60;99.90;;;;;;5066152;28;19931;-74
2022/04/16 08:31:49;;;;;;;;;;;14.50;99.90;;;;;;5067332;28;20360;-75
2022/04/16 08:34:36;;;;;;;;;;;14.00;99.90;;;;;;5061692;28;19929;-75
2022/04/16 08:37:06;;;;;;;;;;;13.90;99.90;;;;;;5068661;28;19931;-76
2022/04/16 08:39:35;;;;;;;;;;;13.80;99.90;;;;;;5067818;28;19931;-76
2022/04/16 08:42:02;;;;;;;;;;;13.70;99.90;;;;;;5071337;28;19924;-75
2022/04/16 08:44:31;;;;;;;;;;;13.80;99.90;;;;;;5068468;28;19939;-75
2022/04/16 08:46:58;;;;;;;;;;;13.90;99.90;;;;;;5066492;28;19939;-76
2022/04/16 08:49:25;;;;;;;;;;;13.70;99.90;;;;;;5063116;28;20256;-75
2022/04/16 08:51:51;;;;;;;;;;;13.30;99.90;;;;;;5066545;28;19924;-75
2022/04/16 08:54:19;;;;;;;;;;;13.20;99.90;;;;;;5099576;28;19924;-76
2022/04/16 08:56:45;;;;;;;;;;;13.20;99.90;;;;;;5065175;28;19928;-76
2022/04/16 08:59:12;;;;;;;;;;;13.40;99.90;;;;;;5058736;28;19925;-76
2022/04/16 09:01:41;;;;;;;;;;;13.50;99.90;;;;;;5064912;28;19974;-76
2022/04/16 09:04:18;;;;;;;;;;;13.80;99.90;;;;;;5066666;28;19936;-76
2022/04/16 09:06:57;;;;;;;;;;;14.00;99.90;;;;;;5062206;28;19932;-75
2022/04/16 09:09:24;;;;;;;;;;;13.90;99.90;;;;;;5063537;28;20345;-76
2022/04/16 09:11:51;;;;;;;;;;;14.10;99.90;;;;;;5066111;28;20409;-76
2022/04/16 09:14:18;;;;;;;;;;;14.10;99.90;;;;;;5063663;28;19925;-75
2022/04/16 09:16:44;;;;;;;;;;;14.10;99.90;;;;;;5064445;28;19925;-76
2022/04/16 09:19:12;;;;;;;;;;;13.70;99.90;;;;;;5065329;28;20027;-76
2022/04/16 09:21:41;;;;;;;;;;;13.90;99.90;;;;;;5061194;28;19924;-76
2022/04/16 09:24:12;;;;;;;;;;;14.30;99.90;;;;;;5063549;28;19982;-76
2022/04/16 09:26:39;;;;;;;;;;;14.50;99.90;;;;;;5062411;28;19955;-76
2022/04/16 09:29:09;;;;;;;;;;;14.60;99.90;;;;;;5058553;28;20401;-76
2022/04/16 09:31:40;;;;;;;;;;;14.50;99.90;;;;;;5057606;28;19932;-76
2022/04/16 09:34:07;;;;;;;;;;;14.20;99.90;;;;;;5064975;28;19948;-76
2022/04/16 09:36:40;;;;;;;;;;;14.30;99.90;;;;;;5063060;28;19932;-76
2022/04/16 09:39:07;;;;;;;;;;;14.50;99.90;;;;;;5061783;28;19936;-76
2022/04/16 09:41:36;;;;;;;;;;;14.40;99.90;;;;;;5067183;28;19928;-76
2022/04/16 09:44:03;;;;;;;;;;;14.60;99.90;;;;;;5064763;28;19995;-76
2022/04/16 09:46:31;;;;;;;;;;;14.60;99.90;;;;;;5066254;28;19929;-76
2022/04/16 09:49:02;;;;;;;;;;;14.70;99.90;;;;;;5063865;28;19932;-76
2022/04/16 09:51:31;;;;;;;;;;;14.80;99.90;;;;;;5058336;28;19946;-74
2022/04/16 09:53:58;;;;;;;;;;;15.10;99.90;;;;;;5063445;28;20387;-75
2022/04/16 09:56:27;;;;;;;;;;;15.20;99.90;;;;;;5065197;28;20158;-75
2022/04/16 09:58:55;;;;;;;;;;;15.90;99.90;;;;;;5059051;28;19924;-75
2022/04/16 10:01:24;;;;;;;;;;;16.80;99.90;;;;;;5062760;28;19932;-75
2022/04/16 10:03:54;;;;;;;;;;;17.60;99.90;;;;;;5064780;28;20419;-76
2022/04/16 10:06:21;;;;;;;;;;;18.30;99.40;;;;;;5065212;28;19924;-76
2022/04/16 10:08:48;;;;;;;;;;;19.30;98.40;;;;;;5061896;28;19925;-75
2022/04/16 10:11:42;;;;;;;;;;;18.90;98.10;;;;;;5065919;28;19948;-75
2022/04/16 10:14:27;;;;;;;;;;;18.90;97.50;;;;;;5067039;28;19924;-75
2022/04/16 10:17:09;;;;;;;;;;;18.40;97.90;;;;;;5063572;28;19991;-76
2022/04/16 10:19:37;;;;;;;;;;;19.10;97.10;;;;;;5068633;28;19954;-75
2022/04/16 10:22:04;;;;;;;;;;;19.20;97.40;;;;;;5063102;28;19924;-75
2022/04/16 10:24:31;;;;;;;;;;;19.40;97.30;;;;;;5065771;28;20027;-76
2022/04/16 10:27:04;;;;;;;;;;;19.70;96.80;;;;;;5070188;28;19932;-76
2022/04/16 10:29:36;;;;;;;;;;;19.60;95.90;;;;;;5072698;28;19931;-76
2022/04/16 10:32:13;;;;;;;;;;;19.60;95.60;;;;;;5072072;28;20397;-75
2022/04/16 10:34:40;;;;;;;;;;;18.60;95.70;;;;;;5071054;28;19924;-74
2022/04/16 10:37:22;;;;;;;;;;;18.40;97.30;;;;;;5067659;28;19935;-74
2022/04/16 10:39:51;;;;;;;;;;;18.60;96.10;;;;;;5068031;28;20375;-75
2022/04/16 10:42:27;;;;;;;;;;;18.90;95.80;;;;;;5070652;28;19933;-75
2022/04/16 10:45:14;;;;;;;;;;;19.00;95.70;;;;;;5069678;28;20290;-74
2022/04/16 10:47:41;;;;;;;;;;;17.90;95.40;;;;;;5068118;28;19928;-74
2022/04/16 10:50:12;;;;;;;;;;;17.60;96.60;;;;;;5068075;28;21973;-74
2022/04/16 10:52:39;;;;;;;;;;;18.30;96.50;;;;;;5074230;28;19924;-74
2022/04/16 10:55:06;;;;;;;;;;;18.90;95.80;;;;;;5056714;28;19950;-74
2022/04/16 10:57:33;;;;;;;;;;;18.40;95.10;;;;;;5063429;28;20011;-74
2022/04/16 11:00:12;;;;;;;;;;;17.70;95.70;;;;;;5073502;28;19972;-75
2022/04/16 11:03:09;;;;;;;;;;;18.10;96.30;;;;;;5075366;28;19924;-75
2022/04/16 11:05:42;;;;;;;;;;;18.30;95.60;;;;;;5070535;28;19944;-75
2022/04/16 11:08:13;;;;;;;;;;;17.50;94.80;;;;;;5069488;28;19937;-75
2022/04/16 11:10:40;;;;;;;;;;;17.50;95.30;;;;;;5058222;28;19929;-75
2022/04/16 11:13:08;;;;;;;;;;;17.90;94.60;;;;;;5071258;28;19925;-75
2022/04/16 11:15:39;;;;;;;;;;;18.00;94.40;;;;;;5062934;28;19924;-75
2022/04/16 11:18:06;;;;;;;;;;;18.40;94.20;;;;;;5065352;28;20394;-75
2022/04/16 11:20:33;;;;;;;;;;;18.30;94.10;;;;;;5065383;28;20402;-74
2022/04/16 11:23:01;;;;;;;;;;;18.40;94.00;;;;;;5065425;28;19928;-74
2022/04/16 11:34:14;;;;;;;;;;;18.00;94.80;;;;;;5068878;28;19932;-75
2022/04/16 11:36:33;;;;;;;;;;;18.40;95.10;;;;;;5057987;28;19936;-74
2022/04/16 11:39:00;;;;;;;;;;;18.70;94.00;;;;;;5066606;28;19931;-75
2022/04/16 11:41:29;;;;;;;;;;;19.20;93.70;;;;;;5070200;28;20415;-76
2022/04/16 11:43:58;;;;;;;;;;;18.90;93.80;;;;;;5068394;28;19943;-74
2022/04/16 11:46:24;;;;;;;;;;;19.10;94.10;;;;;;5065444;28;19925;-74
2022/04/16 11:48:51;;;;;;;;;;;19.10;93.10;;;;;;5068371;28;20383;-74
2022/04/16 11:51:18;;;;;;;;;;;19.00;93.50;;;;;;5069162;28;19925;-75
2022/04/16 11:53:52;;;;;;;;;;;18.60;93.60;;;;;;5065683;28;19925;-75
2022/04/16 11:56:22;;;;;;;;;;;18.30;93.00;;;;;;5058313;28;20371;-75
2022/04/16 11:58:50;;;;;;;;;;;17.90;93.00;;;;;;5065970;28;20023;-75
2022/04/16 12:01:20;;;;;;;;;;;17.80;93.40;;;;;;5067419;28;19934;-75
2022/04/16 12:03:52;;;;;;;;;;;17.90;92.90;;;;;;5067046;28;20496;-75
2022/04/16 12:06:19;;;;;;;;;;;18.50;92.80;;;;;;5070365;28;19963;-74
2022/04/16 12:08:46;;;;;;;;;;;18.60;92.60;;;;;;5066966;28;19933;-75
2022/04/16 12:11:13;;;;;;;;;;;18.40;92.60;;;;;;5072160;28;19924;-75
2022/04/16 12:13:40;;;;;;;;;;;18.50;93.00;;;;;;5067079;28;19924;-74
2022/04/16 12:16:13;;;;;;;;;;;18.50;92.50;;;;;;5065651;28;19924;-75
2022/04/16 12:18:41;;;;;;;;;;;18.20;92.30;;;;;;5063128;28;20444;-74
2022/04/16 12:21:14;;;;;;;;;;;18.20;92.20;;;;;;5065797;28;20391;-74
2022/04/16 12:23:43;;;;;;;;;;;18.40;92.20;;;;;;5069533;28;20007;-75
2022/04/16 12:26:14;;;;;;;;;;;18.70;92.20;;;;;;5069169;28;20449;-75
2022/04/16 12:28:52;;;;;;;;;;;18.70;92.40;;;;;;5065941;28;20395;-77
2022/04/16 12:31:29;;;;;;;;;;;18.60;91.90;;;;;;5061199;28;19925;-75
2022/04/16 12:33:56;;;;;;;;;;;18.60;92.30;;;;;;5060675;28;20663;-75
2022/04/16 12:36:23;;;;;;;;;;;19.10;91.80;;;;;;5057192;28;19925;-74
2022/04/16 12:38:50;;;;;;;;;;;19.00;91.50;;;;;;5060307;28;19932;-75
2022/04/16 12:41:19;;;;;;;;;;;18.90;91.40;;;;;;5065328;28;19928;-74
2022/04/16 12:43:47;;;;;;;;;;;18.90;91.40;;;;;;5062864;28;19928;-74
2022/04/16 12:46:14;;;;;;;;;;;18.80;91.30;;;;;;5066429;28;19981;-75
2022/04/16 12:48:40;;;;;;;;;;;19.20;91.20;;;;;;5059185;28;19928;-75
2022/04/16 12:51:07;;;;;;;;;;;19.40;91.20;;;;;;5062858;28;19979;-75
2022/04/16 12:53:34;;;;;;;;;;;19.00;89.80;;;;;;5062680;28;20019;-74
2022/04/16 12:56:00;;;;;;;;;;;18.70;87.90;;;;;;5064381;28;19925;-74
2022/04/16 12:58:27;;;;;;;;;;;18.40;88.50;;;;;;5060941;28;19968;-74
2022/04/16 13:00:54;;;;;;;;;;;18.20;90.10;;;;;;5062755;28;19925;-73
2022/04/16 13:03:21;;;;;;;;;;;18.00;90.30;;;;;;5067184;28;19933;-74
2022/04/16 13:05:48;;;;;;;;;;;17.80;90.10;;;;;;5060695;28;20329;-73
2022/04/16 13:08:16;;;;;;;;;;;17.90;89.20;;;;;;5061397;28;19931;-73
2022/04/16 13:10:43;;;;;;;;;;;18.20;88.70;;;;;;5062488;28;19924;-74
2022/04/16 13:13:10;;;;;;;;;;;18.20;88.80;;;;;;5069750;28;19931;-74
2022/04/16 13:15:37;;;;;;;;;;;18.40;88.70;;;;;;5071279;28;19925;-74
2022/04/16 13:18:05;;;;;;;;;;;18.80;88.70;;;;;;5061057;28;20263;-74
2022/04/16 13:20:31;;;;;;;;;;;19.00;86.80;;;;;;5063369;28;19936;-74
2022/04/16 13:22:58;;;;;;;;;;;18.70;86.30;;;;;;5062987;28;20007;-74
2022/04/16 13:25:25;;;;;;;;;;;19.00;88.20;;;;;;5065181;28;20294;-75
2022/04/16 13:27:52;;;;;;;;;;;19.40;87.20;;;;;;5061577;28;19928;-75
2022/04/16 13:30:18;;;;;;;;;;;19.70;83.90;;;;;;5063704;28;19928;-75
2022/04/16 13:32:45;;;;;;;;;;;20.30;83.30;;;;;;5061125;28;20397;-75
2022/04/16 13:35:11;;;;;;;;;;;20.60;82.50;;;;;;5062983;28;19931;-75
2022/04/16 13:37:38;;;;;;;;;;;20.50;81.30;;;;;;5061231;28;20368;-75
2022/04/16 13:42:53;;;;;;;;;;;20.10;81.60;;;;;;5057576;28;20294;-75
2022/04/16 13:45:20;;;;;;;;;;;20.10;81.20;;;;;;5060332;28;19948;-75
2022/04/16 13:47:46;;;;;;;;;;;20.30;80.40;;;;;;5058896;28;20444;-74
2022/04/16 13:50:16;;;;;;;;;;;20.10;79.10;;;;;;5062161;28;19993;-76
2022/04/16 13:52:44;;;;;;;;;;;20.10;79.00;;;;;;5062762;28;19930;-74
2022/04/16 13:55:11;;;;;;;;;;;20.10;79.30;;;;;;5066116;28;20046;-74
2022/04/16 13:57:41;;;;;;;;;;;20.00;80.20;;;;;;5066184;28;20019;-74
2022/04/16 14:00:08;;;;;;;;;;;20.10;80.70;;;;;;5066448;28;19932;-74
2022/04/16 14:02:34;;;;;;;;;;;20.20;80.80;;;;;;5057556;28;19974;-75
2022/04/16 14:07:49;;;;;;;;;;;20.80;79.50;;;;;;5062996;28;19947;-75
2022/04/16 14:10:15;;;;;;;;;;;21.50;79.70;;;;;;5065376;28;19924;-76
2022/04/16 14:12:45;;;;;;;;;;;21.90;77.80;;;;;;5066328;28;19935;-73
2022/04/16 14:15:12;;;;;;;;;;;21.50;74.70;;;;;;5048925;28;19929;-74
2022/04/16 14:17:39;;;;;;;;;;;21.10;74.00;;;;;;5046074;28;19928;-74
2022/04/16 14:20:06;;;;;;;;;;;21.00;75.00;;;;;;5059510;28;19940;-75
2022/04/16 14:22:34;;;;;;;;;;;21.50;76.30;;;;;;5058471;28;19928;-75
2022/04/16 14:25:00;;;;;;;;;;;21.70;75.60;;;;;;5061032;28;20015;-75
2022/04/16 14:27:27;;;;;;;;;;;22.10;76.70;;;;;;5058128;28;19939;-75
2022/04/16 14:29:54;;;;;;;;;;;22.40;74.80;;;;;;5062801;28;20355;-75
2022/04/16 14:32:20;;;;;;;;;;;22.40;74.80;;;;;;5061983;28;19924;-75
2022/04/16 14:34:47;;;;;;;;;;;22.60;75.10;;;;;;5061821;28;20037;-75
2022/04/16 14:37:14;;;;;;;;;;;22.70;74.90;;;;;;5059459;28;21392;-75
2022/04/16 14:39:41;;;;;;;;;;;;;;;;;;5058182;28;20282;-75
2022/04/16 14:42:10;;;;;;;;;;;22.90;77.40;;;;;;5059215;28;20476;-75
2022/04/16 14:44:40;;;;;;;;;;;22.80;82.60;;;;;;5062244;28;19932;-75
2022/04/16 14:47:07;;;;;;;;;;;22.60;83.10;;;;;;5050962;28;19933;-75
2022/04/16 14:49:34;;;;;;;;;;;;;;;;;;5059142;28;19935;-75
2022/04/16 14:52:04;;;;;;;;;;;;;;;;;;5058873;28;20375;-75
2022/04/16 14:54:31;;;;;;;;;;;;;;;;;;5057541;28;19928;-75
2022/04/16 14:57:18;;;;;;;;;;;;;;;;;;5057797;28;19978;-74